sensor_id;sensor_type;location;lat;lon;timestamp;P1;durP1;ratioP1;P2;durP2;ratioP2
70052;SDS011;57398;52.032;4.376;2023-01-31T00:01:04;10.43;;;2.20;;
70052;SDS011;57398;52.032;4.376;2023-01-31T00:03:55;8.25;;;2.35;;
70052;SDS011;57398;52.032;4.376;2023-01-31T00:06:44;9.57;;;2.20;;
70052;SDS011;57398;52.032;4.376;2023-01-31T00:09:37;11.45;;;2.55;;
70052;SDS011;57398;52.032;4.376;2023-01-31T00:12:25;7.97;;;2.10;;
70052;SDS011;57398;52.032;4.376;2023-01-31T00:15:14;9.43;;;1.90;;
70052;SDS011;57398;52.032;4.376;2023-01-31T00:18:04;9.55;;;2.13;;
70052;SDS011;57398;52.032;4.376;2023-01-31T00:20:52;12.38;;;2.17;;
70052;SDS011;57398;52.032;4.376;2023-01-31T00:23:42;11.63;;;1.75;;
70052;SDS011;57398;52.032;4.376;2023-01-31T00:26:31;10.38;;;2.40;;
70052;SDS011;57398;52.032;4.376;2023-01-31T00:29:21;13.27;;;2.23;;
70052;SDS011;57398;52.032;4.376;2023-01-31T00:32:12;8.20;;;2.20;;
70052;SDS011;57398;52.032;4.376;2023-01-31T00:35:00;6.70;;;2.15;;
70052;SDS011;57398;52.032;4.376;2023-01-31T00:37:48;7.88;;;2.20;;
70052;SDS011;57398;52.032;4.376;2023-01-31T00:40:36;7.03;;;1.83;;
70052;SDS011;57398;52.032;4.376;2023-01-31T00:43:24;8.00;;;2.10;;
70052;SDS011;57398;52.032;4.376;2023-01-31T00:46:13;8.45;;;1.80;;
70052;SDS011;57398;52.032;4.376;2023-01-31T00:49:02;11.20;;;2.28;;
70052;SDS011;57398;52.032;4.376;2023-01-31T00:51:51;15.65;;;2.47;;
70052;SDS011;57398;52.032;4.376;2023-01-31T00:54:39;10.18;;;2.17;;
70052;SDS011;57398;52.032;4.376;2023-01-31T00:57:28;8.40;;;2.10;;
70052;SDS011;57398;52.032;4.376;2023-01-31T01:00:17;10.48;;;2.45;;
70052;SDS011;57398;52.032;4.376;2023-01-31T01:03:05;6.22;;;1.85;;
70052;SDS011;57398;52.032;4.376;2023-01-31T01:05:55;11.77;;;3.10;;
70052;SDS011;57398;52.032;4.376;2023-01-31T01:08:43;12.40;;;3.22;;
70052;SDS011;57398;52.032;4.376;2023-01-31T01:11:33;10.47;;;2.80;;
70052;SDS011;57398;52.032;4.376;2023-01-31T01:14:22;11.57;;;2.47;;
70052;SDS011;57398;52.032;4.376;2023-01-31T01:17:10;11.90;;;2.08;;
70052;SDS011;57398;52.032;4.376;2023-01-31T01:19:58;12.73;;;2.67;;
70052;SDS011;57398;52.032;4.376;2023-01-31T01:22:50;13.05;;;2.72;;
70052;SDS011;57398;52.032;4.376;2023-01-31T01:25:42;7.10;;;2.60;;
70052;SDS011;57398;52.032;4.376;2023-01-31T01:28:31;12.25;;;3.33;;
70052;SDS011;57398;52.032;4.376;2023-01-31T01:31:21;10.98;;;3.05;;
70052;SDS011;57398;52.032;4.376;2023-01-31T01:34:16;10.32;;;2.88;;
70052;SDS011;57398;52.032;4.376;2023-01-31T01:37:06;16.05;;;3.42;;
70052;SDS011;57398;52.032;4.376;2023-01-31T01:39:59;14.60;;;2.83;;
70052;SDS011;57398;52.032;4.376;2023-01-31T01:42:47;13.93;;;3.10;;
70052;SDS011;57398;52.032;4.376;2023-01-31T01:45:35;11.88;;;3.10;;
70052;SDS011;57398;52.032;4.376;2023-01-31T01:48:24;11.90;;;3.00;;
70052;SDS011;57398;52.032;4.376;2023-01-31T01:51:14;15.25;;;3.53;;
70052;SDS011;57398;52.032;4.376;2023-01-31T01:54:06;14.80;;;3.80;;
70052;SDS011;57398;52.032;4.376;2023-01-31T01:57:01;18.95;;;4.22;;
70052;SDS011;57398;52.032;4.376;2023-01-31T01:59:53;13.68;;;3.90;;
70052;SDS011;57398;52.032;4.376;2023-01-31T02:02:51;16.70;;;3.30;;
70052;SDS011;57398;52.032;4.376;2023-01-31T02:05:43;20.95;;;3.90;;
70052;SDS011;57398;52.032;4.376;2023-01-31T02:08:34;17.80;;;3.33;;
70052;SDS011;57398;52.032;4.376;2023-01-31T02:11:26;16.70;;;4.05;;
70052;SDS011;57398;52.032;4.376;2023-01-31T02:14:18;20.10;;;4.28;;
70052;SDS011;57398;52.032;4.376;2023-01-31T02:17:10;22.55;;;3.70;;
70052;SDS011;57398;52.032;4.376;2023-01-31T02:20:01;12.45;;;3.78;;
70052;SDS011;57398;52.032;4.376;2023-01-31T02:23:06;15.70;;;4.20;;
70052;SDS011;57398;52.032;4.376;2023-01-31T02:26:26;13.88;;;3.70;;
70052;SDS011;57398;52.032;4.376;2023-01-31T02:29:37;13.30;;;3.80;;
70052;SDS011;57398;52.032;4.376;2023-01-31T02:32:49;18.55;;;3.78;;
70052;SDS011;57398;52.032;4.376;2023-01-31T02:35:54;14.63;;;3.90;;
70052;SDS011;57398;52.032;4.376;2023-01-31T02:38:54;14.73;;;4.27;;
70052;SDS011;57398;52.032;4.376;2023-01-31T02:41:49;12.52;;;3.90;;
70052;SDS011;57398;52.032;4.376;2023-01-31T02:44:44;15.25;;;3.85;;
70052;SDS011;57398;52.032;4.376;2023-01-31T02:47:53;20.05;;;4.53;;
70052;SDS011;57398;52.032;4.376;2023-01-31T02:50:56;14.90;;;4.10;;
70052;SDS011;57398;52.032;4.376;2023-01-31T02:53:52;18.60;;;4.20;;
70052;SDS011;57398;52.032;4.376;2023-01-31T02:56:46;21.50;;;5.88;;
70052;SDS011;57398;52.032;4.376;2023-01-31T02:59:35;15.32;;;4.40;;
70052;SDS011;57398;52.032;4.376;2023-01-31T03:02:24;10.50;;;3.33;;
70052;SDS011;57398;52.032;4.376;2023-01-31T03:05:15;19.27;;;4.13;;
70052;SDS011;57398;52.032;4.376;2023-01-31T03:08:05;15.37;;;4.87;;
70052;SDS011;57398;52.032;4.376;2023-01-31T03:10:58;17.42;;;4.57;;
70052;SDS011;57398;52.032;4.376;2023-01-31T03:13:50;13.55;;;3.97;;
70052;SDS011;57398;52.032;4.376;2023-01-31T03:16:50;13.82;;;3.63;;
70052;SDS011;57398;52.032;4.376;2023-01-31T03:20:02;15.07;;;3.50;;
70052;SDS011;57398;52.032;4.376;2023-01-31T03:22:57;18.53;;;3.50;;
70052;SDS011;57398;52.032;4.376;2023-01-31T03:25:49;17.05;;;3.95;;
70052;SDS011;57398;52.032;4.376;2023-01-31T03:28:38;11.30;;;2.90;;
70052;SDS011;57398;52.032;4.376;2023-01-31T03:31:30;15.18;;;3.78;;
70052;SDS011;57398;52.032;4.376;2023-01-31T03:34:24;13.75;;;3.25;;
70052;SDS011;57398;52.032;4.376;2023-01-31T03:37:15;12.13;;;2.57;;
70052;SDS011;57398;52.032;4.376;2023-01-31T03:40:09;15.10;;;3.05;;
70052;SDS011;57398;52.032;4.376;2023-01-31T03:43:05;17.48;;;3.38;;
70052;SDS011;57398;52.032;4.376;2023-01-31T03:45:59;15.40;;;3.42;;
70052;SDS011;57398;52.032;4.376;2023-01-31T03:48:53;14.95;;;3.25;;
70052;SDS011;57398;52.032;4.376;2023-01-31T03:51:45;15.20;;;3.90;;
70052;SDS011;57398;52.032;4.376;2023-01-31T03:54:40;14.27;;;3.40;;
70052;SDS011;57398;52.032;4.376;2023-01-31T03:57:33;12.55;;;2.80;;
70052;SDS011;57398;52.032;4.376;2023-01-31T04:00:25;13.35;;;2.67;;
70052;SDS011;57398;52.032;4.376;2023-01-31T04:03:15;14.52;;;2.92;;
70052;SDS011;57398;52.032;4.376;2023-01-31T04:06:07;15.50;;;2.10;;
70052;SDS011;57398;52.032;4.376;2023-01-31T04:08:57;9.38;;;2.38;;
70052;SDS011;57398;52.032;4.376;2023-01-31T04:11:46;12.90;;;2.28;;
70052;SDS011;57398;52.032;4.376;2023-01-31T04:14:37;13.23;;;2.90;;
70052;SDS011;57398;52.032;4.376;2023-01-31T04:17:26;11.45;;;2.33;;
70052;SDS011;57398;52.032;4.376;2023-01-31T04:20:14;10.00;;;2.17;;
70052;SDS011;57398;52.032;4.376;2023-01-31T04:23:03;12.30;;;2.22;;
70052;SDS011;57398;52.032;4.376;2023-01-31T04:25:51;12.93;;;2.13;;
70052;SDS011;57398;52.032;4.376;2023-01-31T04:28:40;13.73;;;2.60;;
70052;SDS011;57398;52.032;4.376;2023-01-31T04:31:30;14.75;;;2.22;;
70052;SDS011;57398;52.032;4.376;2023-01-31T04:34:18;9.57;;;1.87;;
70052;SDS011;57398;52.032;4.376;2023-01-31T04:37:06;11.85;;;2.05;;
70052;SDS011;57398;52.032;4.376;2023-01-31T04:39:55;13.07;;;2.25;;
70052;SDS011;57398;52.032;4.376;2023-01-31T04:42:43;12.73;;;2.15;;
70052;SDS011;57398;52.032;4.376;2023-01-31T04:45:32;11.38;;;1.88;;
70052;SDS011;57398;52.032;4.376;2023-01-31T04:48:22;12.07;;;1.70;;
70052;SDS011;57398;52.032;4.376;2023-01-31T04:51:10;10.43;;;1.83;;
70052;SDS011;57398;52.032;4.376;2023-01-31T04:53:58;11.75;;;2.30;;
70052;SDS011;57398;52.032;4.376;2023-01-31T04:56:46;10.05;;;1.80;;
70052;SDS011;57398;52.032;4.376;2023-01-31T04:59:34;8.75;;;1.70;;
70052;SDS011;57398;52.032;4.376;2023-01-31T05:02:23;10.30;;;2.30;;
70052;SDS011;57398;52.032;4.376;2023-01-31T05:05:13;12.77;;;2.00;;
70052;SDS011;57398;52.032;4.376;2023-01-31T05:08:01;10.02;;;2.15;;
70052;SDS011;57398;52.032;4.376;2023-01-31T05:10:54;9.80;;;2.33;;
70052;SDS011;57398;52.032;4.376;2023-01-31T05:13:44;10.48;;;2.70;;
70052;SDS011;57398;52.032;4.376;2023-01-31T05:16:33;13.07;;;2.10;;
70052;SDS011;57398;52.032;4.376;2023-01-31T05:19:22;11.07;;;1.70;;
70052;SDS011;57398;52.032;4.376;2023-01-31T05:22:11;9.95;;;1.90;;
70052;SDS011;57398;52.032;4.376;2023-01-31T05:25:00;10.18;;;2.08;;
70052;SDS011;57398;52.032;4.376;2023-01-31T05:27:48;6.97;;;1.45;;
70052;SDS011;57398;52.032;4.376;2023-01-31T05:30:36;9.13;;;1.70;;
70052;SDS011;57398;52.032;4.376;2023-01-31T05:33:24;10.75;;;2.33;;
70052;SDS011;57398;52.032;4.376;2023-01-31T05:36:14;8.73;;;2.10;;
70052;SDS011;57398;52.032;4.376;2023-01-31T05:39:04;9.55;;;2.05;;
70052;SDS011;57398;52.032;4.376;2023-01-31T05:41:52;9.40;;;2.30;;
70052;SDS011;57398;52.032;4.376;2023-01-31T05:44:41;11.63;;;1.83;;
70052;SDS011;57398;52.032;4.376;2023-01-31T05:47:29;15.52;;;2.42;;
70052;SDS011;57398;52.032;4.376;2023-01-31T05:50:18;12.55;;;2.33;;
70052;SDS011;57398;52.032;4.376;2023-01-31T05:53:06;18.40;;;2.20;;
70052;SDS011;57398;52.032;4.376;2023-01-31T05:55:56;11.65;;;1.90;;
70052;SDS011;57398;52.032;4.376;2023-01-31T05:58:44;9.63;;;1.83;;
70052;SDS011;57398;52.032;4.376;2023-01-31T06:01:36;8.50;;;2.15;;
70052;SDS011;57398;52.032;4.376;2023-01-31T06:04:24;7.75;;;1.58;;
70052;SDS011;57398;52.032;4.376;2023-01-31T06:07:12;13.40;;;2.38;;
70052;SDS011;57398;52.032;4.376;2023-01-31T06:10:01;9.10;;;2.20;;
70052;SDS011;57398;52.032;4.376;2023-01-31T06:12:51;11.93;;;1.90;;
70052;SDS011;57398;52.032;4.376;2023-01-31T06:15:41;9.48;;;1.90;;
70052;SDS011;57398;52.032;4.376;2023-01-31T06:18:30;8.85;;;2.05;;
70052;SDS011;57398;52.032;4.376;2023-01-31T06:21:18;10.68;;;1.95;;
70052;SDS011;57398;52.032;4.376;2023-01-31T06:24:07;10.32;;;1.83;;
70052;SDS011;57398;52.032;4.376;2023-01-31T06:26:55;9.93;;;2.33;;
70052;SDS011;57398;52.032;4.376;2023-01-31T06:29:45;13.50;;;2.40;;
70052;SDS011;57398;52.032;4.376;2023-01-31T06:32:33;8.27;;;1.50;;
70052;SDS011;57398;52.032;4.376;2023-01-31T06:35:21;9.23;;;1.90;;
70052;SDS011;57398;52.032;4.376;2023-01-31T06:38:09;8.13;;;1.70;;
70052;SDS011;57398;52.032;4.376;2023-01-31T06:40:59;8.97;;;1.63;;
70052;SDS011;57398;52.032;4.376;2023-01-31T06:43:47;7.57;;;1.42;;
70052;SDS011;57398;52.032;4.376;2023-01-31T06:46:38;11.65;;;1.50;;
70052;SDS011;57398;52.032;4.376;2023-01-31T06:49:26;7.22;;;1.40;;
70052;SDS011;57398;52.032;4.376;2023-01-31T06:52:14;9.40;;;1.65;;
70052;SDS011;57398;52.032;4.376;2023-01-31T06:55:03;9.50;;;1.37;;
70052;SDS011;57398;52.032;4.376;2023-01-31T06:57:52;12.45;;;1.83;;
70052;SDS011;57398;52.032;4.376;2023-01-31T07:00:41;7.47;;;1.58;;
70052;SDS011;57398;52.032;4.376;2023-01-31T07:03:31;12.55;;;2.03;;
70052;SDS011;57398;52.032;4.376;2023-01-31T07:06:20;5.70;;;1.67;;
70052;SDS011;57398;52.032;4.376;2023-01-31T07:09:09;8.00;;;1.63;;
70052;SDS011;57398;52.032;4.376;2023-01-31T07:11:57;10.32;;;1.98;;
70052;SDS011;57398;52.032;4.376;2023-01-31T07:14:46;9.10;;;2.00;;
70052;SDS011;57398;52.032;4.376;2023-01-31T07:17:34;6.28;;;1.50;;
70052;SDS011;57398;52.032;4.376;2023-01-31T07:20:24;9.45;;;1.70;;
70052;SDS011;57398;52.032;4.376;2023-01-31T07:23:12;8.23;;;1.70;;
70052;SDS011;57398;52.032;4.376;2023-01-31T07:26:01;10.23;;;1.73;;
70052;SDS011;57398;52.032;4.376;2023-01-31T07:28:50;8.65;;;1.85;;
70052;SDS011;57398;52.032;4.376;2023-01-31T07:31:39;6.65;;;1.20;;
70052;SDS011;57398;52.032;4.376;2023-01-31T07:34:27;9.35;;;1.45;;
70052;SDS011;57398;52.032;4.376;2023-01-31T07:37:17;8.00;;;1.47;;
70052;SDS011;57398;52.032;4.376;2023-01-31T07:40:05;10.20;;;1.52;;
70052;SDS011;57398;52.032;4.376;2023-01-31T07:42:56;8.80;;;1.70;;
70052;SDS011;57398;52.032;4.376;2023-01-31T07:45:45;7.38;;;1.92;;
70052;SDS011;57398;52.032;4.376;2023-01-31T07:48:33;10.23;;;2.03;;
70052;SDS011;57398;52.032;4.376;2023-01-31T07:51:21;6.67;;;1.70;;
70052;SDS011;57398;52.032;4.376;2023-01-31T07:54:11;11.00;;;2.08;;
70052;SDS011;57398;52.032;4.376;2023-01-31T07:56:59;9.05;;;1.70;;
70052;SDS011;57398;52.032;4.376;2023-01-31T07:59:47;4.75;;;1.80;;
70052;SDS011;57398;52.032;4.376;2023-01-31T08:02:35;6.35;;;1.63;;
70052;SDS011;57398;52.032;4.376;2023-01-31T08:05:53;17.30;;;5.23;;
70052;SDS011;57398;52.032;4.376;2023-01-31T08:08:41;10.10;;;2.30;;
70052;SDS011;57398;52.032;4.376;2023-01-31T08:11:31;6.45;;;2.03;;
70052;SDS011;57398;52.032;4.376;2023-01-31T08:14:19;9.75;;;2.17;;
70052;SDS011;57398;52.032;4.376;2023-01-31T08:17:11;8.18;;;1.67;;
70052;SDS011;57398;52.032;4.376;2023-01-31T08:19:59;6.03;;;1.60;;
70052;SDS011;57398;52.032;4.376;2023-01-31T08:22:47;11.65;;;1.65;;
70052;SDS011;57398;52.032;4.376;2023-01-31T08:25:35;6.63;;;1.65;;
70052;SDS011;57398;52.032;4.376;2023-01-31T08:28:25;8.20;;;1.55;;
70052;SDS011;57398;52.032;4.376;2023-01-31T08:31:14;10.15;;;2.08;;
70052;SDS011;57398;52.032;4.376;2023-01-31T08:34:05;9.23;;;2.53;;
70052;SDS011;57398;52.032;4.376;2023-01-31T08:36:53;9.82;;;1.50;;
70052;SDS011;57398;52.032;4.376;2023-01-31T08:39:41;8.93;;;1.95;;
70052;SDS011;57398;52.032;4.376;2023-01-31T08:42:30;6.53;;;1.63;;
70052;SDS011;57398;52.032;4.376;2023-01-31T08:45:19;12.93;;;2.20;;
70052;SDS011;57398;52.032;4.376;2023-01-31T08:48:08;10.87;;;1.70;;
70052;SDS011;57398;52.032;4.376;2023-01-31T08:50:58;7.63;;;2.00;;
70052;SDS011;57398;52.032;4.376;2023-01-31T08:53:47;10.40;;;1.92;;
70052;SDS011;57398;52.032;4.376;2023-01-31T08:56:36;6.28;;;1.92;;
70052;SDS011;57398;52.032;4.376;2023-01-31T08:59:24;7.25;;;2.10;;
70052;SDS011;57398;52.032;4.376;2023-01-31T09:02:14;9.63;;;1.97;;
70052;SDS011;57398;52.032;4.376;2023-01-31T09:05:02;9.50;;;1.92;;
70052;SDS011;57398;52.032;4.376;2023-01-31T09:07:51;29.33;;;10.68;;
70052;SDS011;57398;52.032;4.376;2023-01-31T09:10:39;21.08;;;7.57;;
70052;SDS011;57398;52.032;4.376;2023-01-31T09:13:28;12.77;;;2.55;;
70052;SDS011;57398;52.032;4.376;2023-01-31T09:16:17;14.17;;;2.53;;
70052;SDS011;57398;52.032;4.376;2023-01-31T09:19:08;9.23;;;1.90;;
70052;SDS011;57398;52.032;4.376;2023-01-31T09:21:56;7.25;;;1.90;;
70052;SDS011;57398;52.032;4.376;2023-01-31T09:24:44;13.02;;;2.33;;
70052;SDS011;57398;52.032;4.376;2023-01-31T09:27:33;14.40;;;2.70;;
70052;SDS011;57398;52.032;4.376;2023-01-31T09:30:23;10.67;;;2.40;;
70052;SDS011;57398;52.032;4.376;2023-01-31T09:33:11;11.73;;;1.90;;
70052;SDS011;57398;52.032;4.376;2023-01-31T09:36:02;9.65;;;2.15;;
70052;SDS011;57398;52.032;4.376;2023-01-31T09:38:54;12.43;;;2.55;;
70052;SDS011;57398;52.032;4.376;2023-01-31T09:41:44;11.13;;;2.00;;
70052;SDS011;57398;52.032;4.376;2023-01-31T09:44:37;8.83;;;2.17;;
70052;SDS011;57398;52.032;4.376;2023-01-31T09:47:29;10.60;;;2.40;;
70052;SDS011;57398;52.032;4.376;2023-01-31T09:50:21;8.45;;;2.00;;
70052;SDS011;57398;52.032;4.376;2023-01-31T09:53:16;13.43;;;2.45;;
70052;SDS011;57398;52.032;4.376;2023-01-31T09:56:13;8.40;;;2.53;;
70052;SDS011;57398;52.032;4.376;2023-01-31T09:59:12;11.83;;;2.20;;
70052;SDS011;57398;52.032;4.376;2023-01-31T10:02:11;13.13;;;2.60;;
70052;SDS011;57398;52.032;4.376;2023-01-31T10:05:15;15.77;;;3.33;;
70052;SDS011;57398;52.032;4.376;2023-01-31T10:08:12;10.95;;;2.40;;
70052;SDS011;57398;52.032;4.376;2023-01-31T10:11:09;17.42;;;2.72;;
70052;SDS011;57398;52.032;4.376;2023-01-31T10:14:03;10.80;;;2.20;;
70052;SDS011;57398;52.032;4.376;2023-01-31T10:17:06;12.57;;;2.45;;
70052;SDS011;57398;52.032;4.376;2023-01-31T10:20:02;14.35;;;2.40;;
70052;SDS011;57398;52.032;4.376;2023-01-31T10:22:56;11.15;;;2.40;;
70052;SDS011;57398;52.032;4.376;2023-01-31T10:25:52;9.77;;;2.30;;
70052;SDS011;57398;52.032;4.376;2023-01-31T10:28:45;9.00;;;2.40;;
70052;SDS011;57398;52.032;4.376;2023-01-31T10:31:39;9.65;;;2.10;;
70052;SDS011;57398;52.032;4.376;2023-01-31T10:34:31;10.40;;;2.00;;
70052;SDS011;57398;52.032;4.376;2023-01-31T10:37:28;10.98;;;2.05;;
70052;SDS011;57398;52.032;4.376;2023-01-31T10:40:22;10.45;;;2.25;;
70052;SDS011;57398;52.032;4.376;2023-01-31T10:43:19;8.33;;;2.03;;
70052;SDS011;57398;52.032;4.376;2023-01-31T10:46:10;9.98;;;2.38;;
70052;SDS011;57398;52.032;4.376;2023-01-31T10:48:58;5.57;;;1.67;;
70052;SDS011;57398;52.032;4.376;2023-01-31T10:51:50;11.13;;;2.30;;
70052;SDS011;57398;52.032;4.376;2023-01-31T10:54:52;10.45;;;1.88;;
70052;SDS011;57398;52.032;4.376;2023-01-31T10:57:50;5.80;;;1.60;;
70052;SDS011;57398;52.032;4.376;2023-01-31T11:00:41;9.40;;;1.73;;
70052;SDS011;57398;52.032;4.376;2023-01-31T11:03:32;12.10;;;2.35;;
70052;SDS011;57398;52.032;4.376;2023-01-31T11:06:21;8.30;;;1.50;;
70052;SDS011;57398;52.032;4.376;2023-01-31T11:09:09;12.45;;;1.92;;
70052;SDS011;57398;52.032;4.376;2023-01-31T11:12:00;14.10;;;2.60;;
70052;SDS011;57398;52.032;4.376;2023-01-31T11:15:03;7.75;;;2.25;;
70052;SDS011;57398;52.032;4.376;2023-01-31T11:17:56;7.43;;;2.00;;
70052;SDS011;57398;52.032;4.376;2023-01-31T11:20:46;13.75;;;2.13;;
70052;SDS011;57398;52.032;4.376;2023-01-31T11:23:34;7.75;;;1.73;;
70052;SDS011;57398;52.032;4.376;2023-01-31T11:26:24;6.87;;;1.57;;
70052;SDS011;57398;52.032;4.376;2023-01-31T11:29:16;8.63;;;1.77;;
70052;SDS011;57398;52.032;4.376;2023-01-31T11:32:12;14.43;;;2.08;;
70052;SDS011;57398;52.032;4.376;2023-01-31T11:35:20;8.27;;;1.63;;
70052;SDS011;57398;52.032;4.376;2023-01-31T11:38:18;8.68;;;1.33;;
70052;SDS011;57398;52.032;4.376;2023-01-31T11:41:29;8.47;;;1.90;;
70052;SDS011;57398;52.032;4.376;2023-01-31T11:44:19;10.90;;;2.03;;
70052;SDS011;57398;52.032;4.376;2023-01-31T11:47:10;9.35;;;2.08;;
70052;SDS011;57398;52.032;4.376;2023-01-31T11:49:59;12.10;;;2.42;;
70052;SDS011;57398;52.032;4.376;2023-01-31T11:52:54;8.95;;;1.70;;
70052;SDS011;57398;52.032;4.376;2023-01-31T11:55:44;8.47;;;1.90;;
70052;SDS011;57398;52.032;4.376;2023-01-31T11:58:35;8.68;;;1.75;;
70052;SDS011;57398;52.032;4.376;2023-01-31T12:01:26;10.70;;;2.30;;
70052;SDS011;57398;52.032;4.376;2023-01-31T12:04:16;9.10;;;1.92;;
70052;SDS011;57398;52.032;4.376;2023-01-31T12:07:19;7.68;;;2.03;;
70052;SDS011;57398;52.032;4.376;2023-01-31T12:10:27;11.53;;;2.40;;
70052;SDS011;57398;52.032;4.376;2023-01-31T12:13:19;8.80;;;2.00;;
70052;SDS011;57398;52.032;4.376;2023-01-31T12:16:08;10.90;;;2.70;;
70052;SDS011;57398;52.032;4.376;2023-01-31T12:19:02;7.70;;;1.90;;
70052;SDS011;57398;52.032;4.376;2023-01-31T12:22:03;12.90;;;1.85;;
70052;SDS011;57398;52.032;4.376;2023-01-31T12:25:01;8.80;;;2.07;;
70052;SDS011;57398;52.032;4.376;2023-01-31T12:28:02;13.60;;;2.80;;
70052;SDS011;57398;52.032;4.376;2023-01-31T12:31:05;9.23;;;1.90;;
70052;SDS011;57398;52.032;4.376;2023-01-31T12:34:17;11.82;;;2.15;;
70052;SDS011;57398;52.032;4.376;2023-01-31T12:37:21;10.90;;;2.08;;
70052;SDS011;57398;52.032;4.376;2023-01-31T12:40:37;11.07;;;1.90;;
70052;SDS011;57398;52.032;4.376;2023-01-31T12:43:39;9.77;;;1.90;;
70052;SDS011;57398;52.032;4.376;2023-01-31T12:46:40;11.05;;;1.70;;
70052;SDS011;57398;52.032;4.376;2023-01-31T12:49:57;8.18;;;1.92;;
70052;SDS011;57398;52.032;4.376;2023-01-31T12:53:06;14.75;;;2.20;;
70052;SDS011;57398;52.032;4.376;2023-01-31T12:56:10;10.07;;;1.83;;
70052;SDS011;57398;52.032;4.376;2023-01-31T12:59:45;12.45;;;2.35;;
70052;SDS011;57398;52.032;4.376;2023-01-31T13:02:44;13.27;;;2.30;;
70052;SDS011;57398;52.032;4.376;2023-01-31T13:05:48;7.70;;;1.55;;
70052;SDS011;57398;52.032;4.376;2023-01-31T13:08:43;12.02;;;2.45;;
70052;SDS011;57398;52.032;4.376;2023-01-31T13:11:53;10.47;;;1.93;;
70052;SDS011;57398;52.032;4.376;2023-01-31T13:14:49;11.98;;;2.03;;
70052;SDS011;57398;52.032;4.376;2023-01-31T13:17:51;9.63;;;2.08;;
70052;SDS011;57398;52.032;4.376;2023-01-31T13:20:49;8.50;;;2.15;;
70052;SDS011;57398;52.032;4.376;2023-01-31T13:23:42;14.00;;;2.47;;
70052;SDS011;57398;52.032;4.376;2023-01-31T13:26:35;9.87;;;1.73;;
70052;SDS011;57398;52.032;4.376;2023-01-31T13:29:31;11.30;;;1.98;;
70052;SDS011;57398;52.032;4.376;2023-01-31T13:32:26;8.25;;;1.88;;
70052;SDS011;57398;52.032;4.376;2023-01-31T13:35:17;12.85;;;2.28;;
70052;SDS011;57398;52.032;4.376;2023-01-31T13:38:11;9.15;;;1.80;;
70052;SDS011;57398;52.032;4.376;2023-01-31T13:41:04;7.93;;;1.60;;
70052;SDS011;57398;52.032;4.376;2023-01-31T13:43:56;9.73;;;2.20;;
70052;SDS011;57398;52.032;4.376;2023-01-31T13:46:47;7.07;;;1.60;;
70052;SDS011;57398;52.032;4.376;2023-01-31T13:49:45;7.88;;;2.85;;
70052;SDS011;57398;52.032;4.376;2023-01-31T13:52:38;11.30;;;1.98;;
70052;SDS011;57398;52.032;4.376;2023-01-31T13:55:32;7.67;;;1.90;;
70052;SDS011;57398;52.032;4.376;2023-01-31T13:58:26;10.85;;;1.80;;
70052;SDS011;57398;52.032;4.376;2023-01-31T14:01:18;11.02;;;2.15;;
70052;SDS011;57398;52.032;4.376;2023-01-31T14:04:20;8.48;;;1.60;;
70052;SDS011;57398;52.032;4.376;2023-01-31T14:07:22;16.40;;;2.45;;
70052;SDS011;57398;52.032;4.376;2023-01-31T14:10:26;12.23;;;2.10;;
70052;SDS011;57398;52.032;4.376;2023-01-31T14:13:21;13.85;;;2.13;;
70052;SDS011;57398;52.032;4.376;2023-01-31T14:16:33;14.15;;;2.50;;
70052;SDS011;57398;52.032;4.376;2023-01-31T14:26:30;12.47;;;2.30;;
70052;SDS011;57398;52.032;4.376;2023-01-31T14:29:22;9.98;;;2.63;;
70052;SDS011;57398;52.032;4.376;2023-01-31T14:32:12;8.57;;;2.20;;
70052;SDS011;57398;52.032;4.376;2023-01-31T14:35:04;11.02;;;3.42;;
70052;SDS011;57398;52.032;4.376;2023-01-31T14:38:14;6.70;;;2.08;;
70052;SDS011;57398;52.032;4.376;2023-01-31T14:41:13;7.63;;;1.90;;
70052;SDS011;57398;52.032;4.376;2023-01-31T14:44:15;7.13;;;1.90;;
70052;SDS011;57398;52.032;4.376;2023-01-31T14:47:19;7.40;;;2.20;;
70052;SDS011;57398;52.032;4.376;2023-01-31T14:53:36;8.23;;;2.10;;
70052;SDS011;57398;52.032;4.376;2023-01-31T14:57:02;10.47;;;2.80;;
70052;SDS011;57398;52.032;4.376;2023-01-31T15:00:00;11.23;;;2.05;;
70052;SDS011;57398;52.032;4.376;2023-01-31T15:02:54;11.27;;;2.20;;
70052;SDS011;57398;52.032;4.376;2023-01-31T15:05:50;10.90;;;2.45;;
70052;SDS011;57398;52.032;4.376;2023-01-31T15:08:43;8.32;;;2.85;;
70052;SDS011;57398;52.032;4.376;2023-01-31T15:11:34;14.60;;;2.37;;
70052;SDS011;57398;52.032;4.376;2023-01-31T15:14:31;9.35;;;2.33;;
70052;SDS011;57398;52.032;4.376;2023-01-31T15:17:23;12.70;;;2.40;;
70052;SDS011;57398;52.032;4.376;2023-01-31T15:20:27;12.55;;;2.50;;
70052;SDS011;57398;52.032;4.376;2023-01-31T15:23:23;12.65;;;2.42;;
70052;SDS011;57398;52.032;4.376;2023-01-31T15:26:15;11.50;;;2.57;;
70052;SDS011;57398;52.032;4.376;2023-01-31T15:29:05;11.93;;;2.20;;
70052;SDS011;57398;52.032;4.376;2023-01-31T15:31:56;12.45;;;2.33;;
70052;SDS011;57398;52.032;4.376;2023-01-31T15:34:52;8.23;;;2.00;;
70052;SDS011;57398;52.032;4.376;2023-01-31T15:37:44;10.90;;;2.22;;
70052;SDS011;57398;52.032;4.376;2023-01-31T15:40:34;8.33;;;2.40;;
70052;SDS011;57398;52.032;4.376;2023-01-31T15:43:23;12.10;;;2.70;;
70052;SDS011;57398;52.032;4.376;2023-01-31T15:46:12;6.40;;;2.00;;
70052;SDS011;57398;52.032;4.376;2023-01-31T15:49:18;9.45;;;2.55;;
70052;SDS011;57398;52.032;4.376;2023-01-31T15:52:24;9.35;;;2.03;;
70052;SDS011;57398;52.032;4.376;2023-01-31T15:55:14;10.33;;;2.10;;
70052;SDS011;57398;52.032;4.376;2023-01-31T15:58:04;11.98;;;2.72;;
70052;SDS011;57398;52.032;4.376;2023-01-31T16:00:53;12.25;;;2.58;;
70052;SDS011;57398;52.032;4.376;2023-01-31T16:03:48;13.90;;;2.28;;
70052;SDS011;57398;52.032;4.376;2023-01-31T16:06:42;9.75;;;2.13;;
70052;SDS011;57398;52.032;4.376;2023-01-31T16:09:30;10.37;;;2.27;;
70052;SDS011;57398;52.032;4.376;2023-01-31T16:12:20;13.43;;;2.63;;
70052;SDS011;57398;52.032;4.376;2023-01-31T16:15:13;12.55;;;2.92;;
70052;SDS011;57398;52.032;4.376;2023-01-31T16:18:06;11.45;;;2.65;;
70052;SDS011;57398;52.032;4.376;2023-01-31T16:21:03;18.15;;;4.35;;
70052;SDS011;57398;52.032;4.376;2023-01-31T16:24:06;15.47;;;2.70;;
70052;SDS011;57398;52.032;4.376;2023-01-31T16:27:00;10.75;;;2.85;;
70052;SDS011;57398;52.032;4.376;2023-01-31T16:29:53;13.13;;;2.40;;
70052;SDS011;57398;52.032;4.376;2023-01-31T16:32:45;14.55;;;2.78;;
70052;SDS011;57398;52.032;4.376;2023-01-31T16:35:40;8.40;;;2.08;;
70052;SDS011;57398;52.032;4.376;2023-01-31T16:38:29;12.63;;;2.70;;
70052;SDS011;57398;52.032;4.376;2023-01-31T16:41:22;12.70;;;2.40;;
70052;SDS011;57398;52.032;4.376;2023-01-31T16:44:28;9.43;;;2.05;;
70052;SDS011;57398;52.032;4.376;2023-01-31T16:47:32;10.60;;;2.90;;
70052;SDS011;57398;52.032;4.376;2023-01-31T16:50:33;11.73;;;3.47;;
70052;SDS011;57398;52.032;4.376;2023-01-31T16:53:29;13.47;;;2.53;;
70052;SDS011;57398;52.032;4.376;2023-01-31T16:56:21;10.65;;;2.72;;
70052;SDS011;57398;52.032;4.376;2023-01-31T17:02:29;11.85;;;2.25;;
70052;SDS011;57398;52.032;4.376;2023-01-31T17:05:20;11.77;;;2.55;;
70052;SDS011;57398;52.032;4.376;2023-01-31T17:08:13;12.30;;;2.43;;
70052;SDS011;57398;52.032;4.376;2023-01-31T17:11:04;15.38;;;2.40;;
70052;SDS011;57398;52.032;4.376;2023-01-31T17:14:10;11.85;;;2.47;;
70052;SDS011;57398;52.032;4.376;2023-01-31T17:16:59;14.20;;;3.10;;
70052;SDS011;57398;52.032;4.376;2023-01-31T17:19:52;11.45;;;2.58;;
70052;SDS011;57398;52.032;4.376;2023-01-31T17:22:42;7.93;;;1.93;;
70052;SDS011;57398;52.032;4.376;2023-01-31T17:25:46;12.80;;;2.25;;